createdAt,value
2023-04-18T00:00:19.643Z,43.43
2023-04-18T00:03:25.204Z,43.48
2023-04-18T00:06:32.638Z,43.51
2023-04-18T00:09:37.867Z,43.53
2023-04-18T00:12:42.786Z,43.58
2023-04-18T00:15:50.788Z,43.60
2023-04-18T00:18:56.601Z,43.64
2023-04-18T00:22:02.676Z,43.70
2023-04-18T00:25:09.439Z,43.73
2023-04-18T00:28:16.976Z,43.76
2023-04-18T00:31:23.795Z,43.79
2023-04-18T00:34:30.640Z,43.84
2023-04-18T00:37:36.230Z,43.88
2023-04-18T00:40:41.581Z,43.90
2023-04-18T00:43:46.785Z,43.88
2023-04-18T00:46:52.594Z,43.92
2023-04-18T00:49:59.728Z,43.97
2023-04-18T00:53:06.280Z,44.04
2023-04-18T00:56:11.623Z,44.04
2023-04-18T00:59:17.594Z,44.08
2023-04-18T01:02:24.219Z,44.18
2023-04-18T01:05:30.478Z,44.31
2023-04-18T01:08:35.578Z,44.35
2023-04-18T01:11:41.193Z,44.42
2023-04-18T01:14:49.512Z,44.56
2023-04-18T01:17:55.471Z,44.68
2023-04-18T01:21:07.072Z,44.81
2023-04-18T01:24:22.959Z,44.91
2023-04-18T01:27:29.879Z,45.03
2023-04-18T01:30:36.032Z,45.16
2023-04-18T01:33:42.761Z,45.31
2023-04-18T01:36:51.163Z,45.43
2023-04-18T01:39:58.715Z,45.51
2023-04-18T01:43:05.543Z,45.56
2023-04-18T01:46:11.823Z,45.74
2023-04-18T01:49:18.136Z,45.94
2023-04-18T01:52:23.945Z,46.14
2023-04-18T01:55:32.534Z,46.27
2023-04-18T01:58:39.401Z,46.40
2023-04-18T02:01:45.814Z,46.55
2023-04-18T02:04:52.842Z,46.65
2023-04-18T02:07:58.249Z,46.75
2023-04-18T02:11:05.542Z,46.82
2023-04-18T02:14:14.178Z,46.95
2023-04-18T02:17:20.974Z,47.07
2023-04-18T02:20:26.810Z,47.16
2023-04-18T02:23:33.370Z,47.29
2023-04-18T02:26:40.165Z,47.37
2023-04-18T02:29:45.913Z,47.45
2023-04-18T02:32:51.805Z,47.55
2023-04-18T02:35:58.123Z,47.62
2023-04-18T02:39:04.792Z,47.69
2023-04-18T02:42:10.737Z,47.77
2023-04-18T02:45:16.937Z,47.87
2023-04-18T02:48:22.987Z,47.95
2023-04-18T02:51:29.548Z,48.02
2023-04-18T02:54:35.828Z,48.09
2023-04-18T02:57:43.814Z,48.18
2023-04-18T03:00:49.558Z,48.24
2023-04-18T03:04:11.188Z,48.33
2023-04-18T03:07:20.212Z,48.41
2023-04-18T03:10:27.093Z,48.44
2023-04-18T03:13:26.827Z,48.53
2023-04-18T03:16:32.642Z,48.59
2023-04-18T03:19:38.723Z,48.59
2023-04-18T03:22:45.001Z,48.70
2023-04-18T03:25:53.477Z,48.77
2023-04-18T03:28:59.872Z,48.85
2023-04-18T03:32:05.356Z,48.90
2023-04-18T03:35:10.399Z,48.94
2023-04-18T03:38:15.328Z,48.97
2023-04-18T03:41:21.816Z,49.07
2023-04-18T03:44:27.723Z,49.12
2023-04-18T03:47:36.933Z,49.15
2023-04-18T03:50:43.375Z,49.17
2023-04-18T03:53:49.636Z,49.30
2023-04-18T03:56:54.610Z,49.34
2023-04-18T04:00:00.695Z,49.44
2023-04-18T04:03:09.133Z,49.46
2023-04-18T04:06:18.142Z,49.52
2023-04-18T04:09:24.021Z,49.54
2023-04-18T04:12:29.783Z,49.59
2023-04-18T04:15:36.172Z,49.60
2023-04-18T04:18:43.770Z,49.63
2023-04-18T04:21:50.429Z,49.67
2023-04-18T04:24:56.863Z,49.62
2023-04-18T04:28:04.378Z,49.73
2023-04-18T04:31:14.898Z,49.74
2023-04-18T04:34:21.164Z,49.73
2023-04-18T04:37:27.655Z,49.70
2023-04-18T04:40:36.020Z,49.73
2023-04-18T04:43:47.792Z,49.77
2023-04-18T04:46:56.552Z,49.81
2023-04-18T04:50:04.266Z,49.81
2023-04-18T04:53:10.266Z,49.85
2023-04-18T04:56:18.436Z,49.89
2023-04-18T04:59:23.789Z,49.94
2023-04-18T05:02:32.776Z,49.92
2023-04-18T05:05:38.735Z,49.96
2023-04-18T05:08:50.315Z,49.98
2023-04-18T05:11:58.023Z,49.99
2023-04-18T05:15:06.094Z,50.01
2023-04-18T05:18:11.768Z,50.01
2023-04-18T05:21:17.588Z,50.01
2023-04-18T05:24:24.054Z,50.00
2023-04-18T05:27:30.137Z,50.06
2023-04-18T05:30:35.666Z,50.06
2023-04-18T05:33:49.341Z,50.11
2023-04-18T05:36:58.327Z,50.09
2023-04-18T05:40:04.174Z,50.08
2023-04-18T05:43:09.565Z,50.11
2023-04-18T05:46:15.745Z,50.14
2023-04-18T05:49:21.967Z,50.15
2023-04-18T05:52:30.067Z,50.17
2023-04-18T05:55:36.539Z,50.20
2023-04-18T05:58:43.048Z,50.10
2023-04-18T06:01:49.853Z,49.99
2023-04-18T06:04:58.442Z,49.90
2023-04-18T06:08:04.988Z,49.83
2023-04-18T06:11:11.409Z,49.82
2023-04-18T06:14:22.685Z,49.73
2023-04-18T06:17:28.301Z,49.58
2023-04-18T06:20:35.712Z,49.61
2023-04-18T06:23:51.481Z,49.50
2023-04-18T06:26:59.032Z,49.48
2023-04-18T06:30:04.614Z,49.40
2023-04-18T06:33:28.174Z,49.44
2023-04-18T06:36:36.684Z,49.40
2023-04-18T06:39:59.086Z,49.26
2023-04-18T06:43:04.070Z,49.14
2023-04-18T06:46:11.091Z,48.91
2023-04-18T06:49:16.923Z,48.93
2023-04-18T06:52:21.668Z,48.87
2023-04-18T06:55:28.146Z,48.77
2023-04-18T06:58:33.957Z,48.71
2023-04-18T07:01:40.077Z,48.54
2023-04-18T07:04:46.413Z,48.66
2023-04-18T07:07:51.879Z,48.51
2023-04-18T07:10:59.544Z,48.56
2023-04-18T07:14:04.689Z,48.58
2023-04-18T07:17:09.802Z,48.31
2023-04-18T07:20:16.642Z,48.19
2023-04-18T07:23:22.920Z,48.06
2023-04-18T07:26:29.114Z,47.96
2023-04-18T07:29:34.474Z,47.76
2023-04-18T07:32:40.752Z,47.63
2023-04-18T07:35:47.599Z,47.52
2023-04-18T07:38:54.692Z,47.49
2023-04-18T07:41:59.861Z,47.29
2023-04-18T07:45:06.374Z,47.22
2023-04-18T07:48:14.393Z,47.11
2023-04-18T07:51:19.659Z,47.02
2023-04-18T07:54:24.893Z,46.91
2023-04-18T07:57:30.781Z,46.74
2023-04-18T08:00:37.959Z,46.61
2023-04-18T08:03:44.396Z,46.59
2023-04-18T08:06:50.751Z,46.64
2023-04-18T08:09:58.358Z,46.60
2023-04-18T08:13:03.724Z,46.31
2023-04-18T08:16:10.663Z,46.17
2023-04-18T08:19:18.527Z,45.99
2023-04-18T08:22:26.076Z,45.77
2023-04-18T08:25:34.092Z,45.63
2023-04-18T08:28:48.192Z,45.63
2023-04-18T08:31:56.568Z,45.56
2023-04-18T08:35:04.054Z,45.51
2023-04-18T08:38:11.630Z,45.38
2023-04-18T08:41:18.266Z,45.32
2023-04-18T08:44:24.241Z,45.09
2023-04-18T08:47:32.109Z,45.03
2023-04-18T08:50:37.444Z,44.87
2023-04-18T08:53:42.388Z,44.87
2023-04-18T08:56:49.515Z,44.85
2023-04-18T08:59:57.407Z,44.84
2023-04-18T09:03:04.619Z,44.92
2023-04-18T09:06:29.498Z,44.91
2023-04-18T09:09:37.394Z,44.81
2023-04-18T09:12:45.907Z,44.61
2023-04-18T09:15:52.895Z,44.51
2023-04-18T09:19:04.708Z,44.45
2023-04-18T09:22:16.860Z,44.30
2023-04-18T09:25:23.356Z,44.23
2023-04-18T09:28:44.605Z,44.14
2023-04-18T09:31:50.517Z,44.05
2023-04-18T09:35:04.020Z,43.98
2023-04-18T09:38:09.033Z,43.85
2023-04-18T09:41:25.934Z,43.45
2023-04-18T09:44:31.590Z,43.01
2023-04-18T09:47:36.773Z,42.98
2023-04-18T09:50:43.354Z,42.88
2023-04-18T09:53:57.307Z,42.79
2023-04-18T09:57:03.291Z,42.53
2023-04-18T10:00:31.866Z,42.38
2023-04-18T10:03:37.295Z,42.23
2023-04-18T10:06:48.187Z,42.03
2023-04-18T10:10:02.050Z,41.88
2023-04-18T10:13:19.626Z,41.63
2023-04-18T10:16:26.965Z,41.15
2023-04-18T10:19:40.244Z,40.80
2023-04-18T10:22:47.607Z,40.53
2023-04-18T10:26:03.449Z,40.35
2023-04-18T10:29:13.673Z,40.25
2023-04-18T10:32:22.546Z,39.94
2023-04-18T10:35:27.596Z,39.77
2023-04-18T10:38:36.257Z,39.56
2023-04-18T10:41:45.519Z,39.27
2023-04-18T10:44:52.043Z,39.25
2023-04-18T10:47:59.601Z,39.00
2023-04-18T10:51:33.868Z,38.72
2023-04-18T10:55:11.185Z,38.55
2023-04-18T10:58:18.361Z,38.30
2023-04-18T11:01:23.793Z,38.14
2023-04-18T11:04:30.106Z,37.75
2023-04-18T11:07:55.956Z,37.45
2023-04-18T11:11:05.099Z,37.23
2023-04-18T11:14:13.328Z,37.16
2023-04-18T11:17:40.125Z,37.11
2023-04-18T11:21:05.733Z,36.84
2023-04-18T11:24:14.192Z,36.49
2023-04-18T11:27:25.743Z,35.90
2023-04-18T11:30:31.720Z,35.54
2023-04-18T11:33:37.678Z,35.43
2023-04-18T11:36:45.842Z,35.27
2023-04-18T11:39:59.159Z,35.20
2023-04-18T11:43:04.546Z,35.18
2023-04-18T11:46:12.753Z,35.11
2023-04-18T11:49:19.549Z,35.01
2023-04-18T11:52:27.792Z,35.01
2023-04-18T11:55:36.510Z,34.85
2023-04-18T11:58:49.592Z,34.68
2023-04-18T12:01:53.841Z,34.53
2023-04-18T12:05:13.041Z,34.32
2023-04-18T12:08:29.820Z,34.22
2023-04-18T12:11:36.394Z,34.01
2023-04-18T12:14:42.533Z,33.90
2023-04-18T12:17:50.477Z,33.69
2023-04-18T12:21:04.891Z,33.58
2023-04-18T12:24:12.065Z,33.71
2023-04-18T12:27:19.368Z,33.75
2023-04-18T12:30:30.373Z,33.67
2023-04-18T12:33:36.109Z,33.29
2023-04-18T12:36:42.965Z,32.96
2023-04-18T12:39:48.718Z,32.83
2023-04-18T12:42:55.325Z,32.83
2023-04-18T12:46:04.068Z,32.82
2023-04-18T12:49:09.967Z,32.62
2023-04-18T12:52:16.077Z,32.55
2023-04-18T12:55:22.681Z,32.54
2023-04-18T12:58:31.072Z,32.53
2023-04-18T13:01:36.128Z,32.55
2023-04-18T13:04:42.319Z,32.60
2023-04-18T13:07:49.540Z,32.55
2023-04-18T13:10:59.025Z,32.51
2023-04-18T13:14:06.297Z,32.53
2023-04-18T13:17:12.573Z,32.50
2023-04-18T13:20:20.153Z,32.42
2023-04-18T13:23:26.826Z,32.49
2023-04-18T13:26:31.866Z,32.48
2023-04-18T13:29:36.608Z,32.56
2023-04-18T13:32:44.294Z,32.59
2023-04-18T13:35:50.731Z,32.69
2023-04-18T13:38:56.678Z,32.64
2023-04-18T13:42:04.094Z,32.64
2023-04-18T13:45:10.208Z,32.70
2023-04-18T13:48:16.531Z,32.73
2023-04-18T13:51:24.048Z,32.80
2023-04-18T13:54:30.779Z,32.94
2023-04-18T13:57:39.074Z,33.15
2023-04-18T14:00:47.282Z,33.17
2023-04-18T14:03:54.008Z,33.05
2023-04-18T14:07:01.496Z,32.84
2023-04-18T14:10:08.164Z,32.71
2023-04-18T14:13:14.990Z,32.74
2023-04-18T14:16:22.024Z,32.79
2023-04-18T14:19:28.046Z,32.84
2023-04-18T14:22:35.117Z,32.81
2023-04-18T14:25:40.228Z,32.74
2023-04-18T14:28:46.919Z,32.68
2023-04-18T14:31:51.838Z,32.67
2023-04-18T14:35:00.954Z,32.68
2023-04-18T14:38:07.192Z,32.57
2023-04-18T14:41:13.379Z,32.69
2023-04-18T14:44:20.727Z,32.75
2023-04-18T14:47:29.528Z,32.84
2023-04-18T14:50:35.082Z,32.60
2023-04-18T14:53:41.943Z,32.40
2023-04-18T14:56:49.401Z,32.17
2023-04-18T15:00:00.461Z,32.34
2023-04-18T15:03:08.917Z,32.28
2023-04-18T15:06:13.334Z,32.28
2023-04-18T15:09:18.570Z,32.04
2023-04-18T15:12:24.999Z,31.78
2023-04-18T15:15:32.660Z,31.60
2023-04-18T15:18:38.642Z,31.58
2023-04-18T15:21:45.761Z,31.50
2023-04-18T15:24:51.839Z,31.58
2023-04-18T15:27:58.277Z,31.58
2023-04-18T15:31:03.230Z,31.54
2023-04-18T15:34:10.864Z,31.45
2023-04-18T15:37:17.511Z,31.53
2023-04-18T15:40:26.421Z,31.40
2023-04-18T15:43:34.806Z,31.52
2023-04-18T15:46:41.886Z,31.59
2023-04-18T15:49:48.521Z,31.57
2023-04-18T15:52:55.046Z,31.40
2023-04-18T15:56:00.105Z,31.34
2023-04-18T15:59:05.274Z,31.40
2023-04-18T16:02:13.474Z,31.35
2023-04-18T16:05:21.332Z,31.22
2023-04-18T16:08:28.324Z,31.24
2023-04-18T16:11:36.018Z,31.20
2023-04-18T16:14:41.098Z,31.28
2023-04-18T16:17:46.216Z,31.33
2023-04-18T16:20:53.928Z,31.50
2023-04-18T16:23:59.087Z,31.78
2023-04-18T16:27:06.328Z,31.93
2023-04-18T16:30:12.538Z,32.12
2023-04-18T16:33:19.235Z,32.31
2023-04-18T16:36:26.101Z,32.50
2023-04-18T16:39:32.404Z,32.71
2023-04-18T16:42:38.709Z,32.88
2023-04-18T16:45:46.489Z,33.07
2023-04-18T16:48:52.592Z,33.24
2023-04-18T16:51:58.544Z,33.48
2023-04-18T16:55:04.150Z,33.68
2023-04-18T16:58:11.799Z,33.88
2023-04-18T17:01:16.967Z,34.05
2023-04-18T17:04:23.375Z,34.29
2023-04-18T17:07:30.322Z,34.52
2023-04-18T17:10:35.556Z,34.76
2023-04-18T17:13:43.790Z,34.94
2023-04-18T17:16:54.891Z,35.17
2023-04-18T17:20:02.322Z,35.41
2023-04-18T17:23:08.353Z,35.67
2023-04-18T17:26:15.567Z,35.84
2023-04-18T17:29:22.700Z,36.09
2023-04-18T17:32:30.739Z,36.27
2023-04-18T17:35:36.997Z,36.47
2023-04-18T17:38:43.818Z,36.70
2023-04-18T17:41:53.461Z,36.90
2023-04-18T17:45:00.395Z,37.14
2023-04-18T17:48:07.182Z,37.37
2023-04-18T17:51:11.928Z,37.56
2023-04-18T17:54:21.258Z,37.76
2023-04-18T17:57:28.117Z,37.97
2023-04-18T18:00:34.371Z,38.15
2023-04-18T18:03:40.648Z,38.34
2023-04-18T18:06:47.107Z,38.47
2023-04-18T18:09:55.043Z,38.63
2023-04-18T18:13:02.605Z,38.76
2023-04-18T18:16:07.801Z,38.91
2023-04-18T18:19:14.872Z,39.05
2023-04-18T18:22:22.738Z,39.25
2023-04-18T18:25:28.068Z,39.42
2023-04-18T18:28:34.135Z,39.58
2023-04-18T18:31:39.859Z,39.75
2023-04-18T18:34:47.102Z,39.89
2023-04-18T18:37:55.060Z,40.03
2023-04-18T18:41:03.668Z,40.17
2023-04-18T18:44:09.624Z,40.35
2023-04-18T18:47:15.885Z,40.49
2023-04-18T18:50:21.399Z,40.65
2023-04-18T18:53:27.319Z,40.79
2023-04-18T18:56:32.944Z,40.93
2023-04-18T18:59:39.651Z,41.12
2023-04-18T19:02:48.450Z,41.27
2023-04-18T19:05:55.589Z,41.42
2023-04-18T19:09:02.754Z,41.54
2023-04-18T19:12:09.305Z,41.72
2023-04-18T19:15:16.999Z,41.86
2023-04-18T19:18:26.160Z,41.99
2023-04-18T19:21:31.849Z,42.09
2023-04-18T19:24:39.272Z,42.25
2023-04-18T19:27:46.383Z,42.37
2023-04-18T19:30:54.969Z,42.50
2023-04-18T19:34:01.669Z,42.63
2023-04-18T19:37:09.533Z,42.77
2023-04-18T19:40:15.323Z,42.90
2023-04-18T19:43:21.647Z,43.01
2023-04-18T19:46:28.521Z,43.13
2023-04-18T19:49:36.529Z,43.30
2023-04-18T19:52:44.486Z,43.45
2023-04-18T19:55:52.243Z,43.58
2023-04-18T19:58:58.185Z,43.76
2023-04-18T20:02:06.523Z,43.95
2023-04-18T20:05:13.616Z,44.14
2023-04-18T20:08:20.892Z,44.27
2023-04-18T20:11:27.999Z,44.39
2023-04-18T20:14:34.048Z,44.52
2023-04-18T20:17:40.795Z,44.66
2023-04-18T20:20:47.082Z,44.80
2023-04-18T20:23:53.000Z,44.97
2023-04-18T20:26:59.475Z,45.14
2023-04-18T20:30:07.013Z,45.30
2023-04-18T20:33:14.402Z,45.46
2023-04-18T20:36:21.349Z,45.60
2023-04-18T20:39:27.248Z,45.71
2023-04-18T20:42:33.767Z,45.85
2023-04-18T20:45:41.806Z,45.99
2023-04-18T20:48:50.734Z,46.12
2023-04-18T20:51:57.169Z,46.22
2023-04-18T20:55:03.767Z,46.31
2023-04-18T20:58:11.841Z,46.46
2023-04-18T21:01:17.298Z,46.57
2023-04-18T21:04:24.542Z,46.70
2023-04-18T21:07:31.214Z,46.85
2023-04-18T21:10:36.793Z,46.93
2023-04-18T21:13:47.583Z,47.03
2023-04-18T21:16:55.682Z,47.12
2023-04-18T21:20:03.008Z,47.24
2023-04-18T21:23:09.442Z,47.34
2023-04-18T21:26:15.578Z,47.44
2023-04-18T21:29:21.677Z,47.54
2023-04-18T21:32:28.979Z,47.64
2023-04-18T21:35:36.407Z,47.72
2023-04-18T21:38:42.229Z,47.79
2023-04-18T21:41:48.172Z,47.86
2023-04-18T21:44:53.201Z,47.96
2023-04-18T21:48:00.445Z,48.01
2023-04-18T21:51:10.185Z,48.09
2023-04-18T21:54:16.622Z,48.18
2023-04-18T21:57:23.816Z,48.27
2023-04-18T22:00:31.691Z,48.34
2023-04-18T22:03:38.334Z,48.37
2023-04-18T22:06:44.836Z,48.46
2023-04-18T22:09:52.109Z,48.58
2023-04-18T22:13:00.146Z,48.66
2023-04-18T22:16:05.234Z,48.75
2023-04-18T22:19:12.888Z,48.82
2023-04-18T22:22:18.474Z,48.91
2023-04-18T22:25:24.721Z,49.01
2023-04-18T22:28:35.098Z,49.06
2023-04-18T22:31:42.092Z,49.12
2023-04-18T22:34:48.622Z,49.14
2023-04-18T22:37:49.471Z,49.19
2023-04-18T22:40:55.801Z,49.25
2023-04-18T22:44:02.158Z,49.29
2023-04-18T22:47:07.817Z,49.35
2023-04-18T22:50:13.674Z,49.46
2023-04-18T22:53:18.975Z,49.56
2023-04-18T22:56:25.327Z,49.66
2023-04-18T22:59:31.121Z,49.77
2023-04-18T23:02:38.010Z,49.87
2023-04-18T23:05:44.762Z,50.03
2023-04-18T23:08:51.399Z,50.18
2023-04-18T23:11:57.562Z,50.30
2023-04-18T23:15:04.350Z,50.39
2023-04-18T23:18:09.357Z,50.46
2023-04-18T23:21:15.532Z,50.54
2023-04-18T23:24:22.766Z,50.63
2023-04-18T23:27:28.291Z,50.72
2023-04-18T23:30:34.371Z,50.77
2023-04-18T23:33:41.695Z,50.84
2023-04-18T23:36:46.983Z,50.94
2023-04-18T23:39:54.943Z,51.05
2023-04-18T23:43:01.290Z,51.09
2023-04-18T23:46:07.618Z,51.17
2023-04-18T23:49:14.212Z,51.23
2023-04-18T23:52:20.953Z,51.28
2023-04-18T23:55:28.665Z,51.37
2023-04-18T23:58:35.695Z,51.42
